METAR ET TAF INFORMATION
METAR FOR LYKV
ADDS - METARS form results

(2252 UTC 02 December 2022)
Data provider http://aviationweather.gov/metar/data/
 
METAR text: LYKV 022230Z VRB01KT CAVOK 02/02 Q1024 NOSIG
Conditions at: LYKV (KRALJEVO , RS) observed 2230 UTC 02 December 2022
Temperature: 2.0°C (36°F)
Dewpoint: 2.0°C (36°F) [RH = 100%]
Pressure (altimeter): 30.24 inches Hg (1024.0 mb)
Winds: variable direction winds at 1 MPH (1 knots; 0.5 m/s)
Visibility: 6 or more miles (10+ km)
Ceiling: ceiling and visibility are OK
Clouds: unknown
Weather: no significant weather observed at this time

METAR text: LYKV 022200Z 13003KT 070V180 CAVOK 02/02 Q1023 NOSIG
Conditions at: LYKV (KRALJEVO , RS) observed 2200 UTC 02 December 2022
Temperature: 2.0°C (36°F)
Dewpoint: 2.0°C (36°F) [RH = 100%]
Pressure (altimeter): 30.21 inches Hg (1023.0 mb)
Winds: from the SE (130 degrees) at 3 MPH (3 knots; 1.5 m/s)
Visibility: 6 or more miles (10+ km)
Ceiling: ceiling and visibility are OK
Clouds: unknown
Weather: no significant weather observed at this time

Forecast for: LYKV (KRALJEVO , RS)
Text: TAF LYKV 021700Z 0218/0318 14005KT 9999 SCT033 TX08/0313Z TNM00/0305Z
Forecast period: 1800 to 2100 UTC 02 December 2022
Forecast type: FROM: standard forecast or significant change
Winds: from the SE (140 degrees) at 6 MPH (5 knots; 2.6 m/s)
Visibility: 6 or more miles (10+ km)
Ceiling: at least 12,000 feet AGL
Clouds: scattered clouds at 3300 feet AGL
Weather: no significant weather forecast for this period
Text: BECMG 0221/0223 2000 BR
Forecast period: 2100 UTC 02 December 2022 to 0800 UTC 03 December 2022
Forecast type: BECOMING: Conditions expected to become as follows by 2300 UTC 02 December 2022
Winds: from the SE (140 degrees) at 6 MPH (5 knots; 2.6 m/s)
Visibility: 1.24 miles (2.00 km)
Ceiling: at least 12,000 feet AGL
Clouds: scattered clouds at 3300 feet AGL
Weather: BR  (mist)
Text: TEMPO 0303/0307 FZFG VV003
Forecast period: 0300 to 0700 UTC 03 December 2022
Forecast type: TEMPORARY: The following changes expected for less than half the time period
Visibility: missing
Ceiling: indefinite ceiling with vertical visibility of 300 feet AGL
Clouds: obscured sky
Weather: FZFG  (freezing fog)
Text: BECMG 0308/0310 9999 NSW
Forecast period: 0800 to 1800 UTC 03 December 2022
Forecast type: BECOMING: Conditions expected to become as follows by 1000 UTC 03 December 2022
Winds: from the SE (140 degrees) at 6 MPH (5 knots; 2.6 m/s)
Visibility: 6 or more miles (10+ km)
Ceiling: at least 12,000 feet AGL
Clouds: scattered clouds at 3300 feet AGL
Weather: NSW  (no significant weather)

 AÉROPORT DE AÉROPORT

 INFORMATIONS DE PISTE

 AÉROPORT FRÉQUENCES

 SIDA DE NAVIGATION



Powered by Virtual Airlines Manager [v2.6.2]